sensor_id;sensor_type;location;lat;lon;timestamp;P1;durP1;ratioP1;P2;durP2;ratioP2
27039;SDS011;14589;51.578;7.306;2022-09-27T00:01:36;10.30;;;3.05;;
27039;SDS011;14589;51.578;7.306;2022-09-27T00:04:03;12.55;;;3.03;;
27039;SDS011;14589;51.578;7.306;2022-09-27T00:06:29;5.88;;;2.28;;
27039;SDS011;14589;51.578;7.306;2022-09-27T00:08:56;5.75;;;2.53;;
27039;SDS011;14589;51.578;7.306;2022-09-27T00:11:24;8.57;;;2.50;;
27039;SDS011;14589;51.578;7.306;2022-09-27T00:13:50;10.15;;;2.47;;
27039;SDS011;14589;51.578;7.306;2022-09-27T00:16:16;6.10;;;1.77;;
27039;SDS011;14589;51.578;7.306;2022-09-27T00:18:41;6.80;;;1.77;;
27039;SDS011;14589;51.578;7.306;2022-09-27T00:21:08;8.05;;;1.58;;
27039;SDS011;14589;51.578;7.306;2022-09-27T00:23:36;6.30;;;2.03;;
27039;SDS011;14589;51.578;7.306;2022-09-27T00:26:02;5.15;;;1.73;;
27039;SDS011;14589;51.578;7.306;2022-09-27T00:28:28;9.05;;;1.85;;
27039;SDS011;14589;51.578;7.306;2022-09-27T00:30:55;7.13;;;1.60;;
27039;SDS011;14589;51.578;7.306;2022-09-27T00:33:20;8.90;;;1.95;;
27039;SDS011;14589;51.578;7.306;2022-09-27T00:35:46;7.45;;;2.80;;
27039;SDS011;14589;51.578;7.306;2022-09-27T00:38:12;6.72;;;2.20;;
27039;SDS011;14589;51.578;7.306;2022-09-27T00:40:37;8.57;;;2.65;;
27039;SDS011;14589;51.578;7.306;2022-09-27T00:43:24;11.18;;;2.50;;
27039;SDS011;14589;51.578;7.306;2022-09-27T00:45:51;4.72;;;1.98;;
27039;SDS011;14589;51.578;7.306;2022-09-27T00:48:17;4.15;;;1.85;;
27039;SDS011;14589;51.578;7.306;2022-09-27T00:50:46;9.10;;;2.42;;
27039;SDS011;14589;51.578;7.306;2022-09-27T00:53:20;10.00;;;2.30;;
27039;SDS011;14589;51.578;7.306;2022-09-27T00:55:52;5.00;;;2.08;;
27039;SDS011;14589;51.578;7.306;2022-09-27T00:58:26;6.15;;;2.38;;
27039;SDS011;14589;51.578;7.306;2022-09-27T01:00:58;7.78;;;1.90;;
27039;SDS011;14589;51.578;7.306;2022-09-27T01:03:33;7.97;;;2.00;;
27039;SDS011;14589;51.578;7.306;2022-09-27T01:06:02;9.13;;;2.33;;
27039;SDS011;14589;51.578;7.306;2022-09-27T01:08:27;7.60;;;2.42;;
27039;SDS011;14589;51.578;7.306;2022-09-27T01:11:27;8.57;;;2.17;;
27039;SDS011;14589;51.578;7.306;2022-09-27T01:13:56;6.78;;;1.90;;
27039;SDS011;14589;51.578;7.306;2022-09-27T01:25:02;9.52;;;3.70;;
27039;SDS011;14589;51.578;7.306;2022-09-27T01:27:59;7.30;;;3.55;;
27039;SDS011;14589;51.578;7.306;2022-09-27T01:31:06;7.72;;;3.60;;
27039;SDS011;14589;51.578;7.306;2022-09-27T01:33:46;10.13;;;3.67;;
27039;SDS011;14589;51.578;7.306;2022-09-27T01:36:22;11.63;;;3.55;;
27039;SDS011;14589;51.578;7.306;2022-09-27T01:39:02;12.68;;;3.95;;
27039;SDS011;14589;51.578;7.306;2022-09-27T01:41:59;7.65;;;3.47;;
27039;SDS011;14589;51.578;7.306;2022-09-27T01:44:51;8.23;;;3.90;;
27039;SDS011;14589;51.578;7.306;2022-09-27T01:47:36;8.95;;;4.40;;
27039;SDS011;14589;51.578;7.306;2022-09-27T01:50:26;10.10;;;4.70;;
27039;SDS011;14589;51.578;7.306;2022-09-27T01:53:00;13.45;;;4.65;;
27039;SDS011;14589;51.578;7.306;2022-09-27T01:55:35;13.05;;;5.90;;
27039;SDS011;14589;51.578;7.306;2022-09-27T01:58:39;11.05;;;5.07;;
27039;SDS011;14589;51.578;7.306;2022-09-27T02:01:31;14.02;;;5.40;;
27039;SDS011;14589;51.578;7.306;2022-09-27T02:03:57;12.40;;;5.95;;
27039;SDS011;14589;51.578;7.306;2022-09-27T02:06:35;13.85;;;5.82;;
27039;SDS011;14589;51.578;7.306;2022-09-27T02:12:13;12.02;;;7.32;;
27039;SDS011;14589;51.578;7.306;2022-09-27T02:14:46;13.85;;;7.25;;
27039;SDS011;14589;51.578;7.306;2022-09-27T02:22:49;20.30;;;8.90;;
27039;SDS011;14589;51.578;7.306;2022-09-27T02:25:22;30.27;;;8.88;;
27039;SDS011;14589;51.578;7.306;2022-09-27T02:27:59;18.15;;;7.68;;
27039;SDS011;14589;51.578;7.306;2022-09-27T02:30:33;19.15;;;8.32;;
27039;SDS011;14589;51.578;7.306;2022-09-27T02:33:11;18.88;;;8.48;;
27039;SDS011;14589;51.578;7.306;2022-09-27T02:35:36;13.77;;;7.78;;
27039;SDS011;14589;51.578;7.306;2022-09-27T02:38:02;17.27;;;8.13;;
27039;SDS011;14589;51.578;7.306;2022-09-27T02:40:29;15.93;;;7.60;;
27039;SDS011;14589;51.578;7.306;2022-09-27T02:42:57;14.25;;;7.55;;
27039;SDS011;14589;51.578;7.306;2022-09-27T02:45:24;17.73;;;7.07;;
27039;SDS011;14589;51.578;7.306;2022-09-27T02:50:54;11.07;;;5.00;;
27039;SDS011;14589;51.578;7.306;2022-09-27T02:57:07;7.25;;;4.13;;
27039;SDS011;14589;51.578;7.306;2022-09-27T02:59:59;6.88;;;3.92;;
27039;SDS011;14589;51.578;7.306;2022-09-27T03:02:52;9.65;;;3.80;;
27039;SDS011;14589;51.578;7.306;2022-09-27T03:05:32;9.65;;;3.72;;
27039;SDS011;14589;51.578;7.306;2022-09-27T03:08:03;8.98;;;3.50;;
27039;SDS011;14589;51.578;7.306;2022-09-27T03:10:28;8.80;;;3.80;;
27039;SDS011;14589;51.578;7.306;2022-09-27T03:12:54;7.07;;;3.72;;
27039;SDS011;14589;51.578;7.306;2022-09-27T03:15:21;8.05;;;3.20;;
27039;SDS011;14589;51.578;7.306;2022-09-27T03:17:58;7.57;;;3.08;;
27039;SDS011;14589;51.578;7.306;2022-09-27T03:20:43;10.15;;;3.00;;
27039;SDS011;14589;51.578;7.306;2022-09-27T03:23:10;10.68;;;3.00;;
27039;SDS011;14589;51.578;7.306;2022-09-27T03:25:35;13.55;;;3.33;;
27039;SDS011;14589;51.578;7.306;2022-09-27T03:28:02;7.80;;;2.90;;
27039;SDS011;14589;51.578;7.306;2022-09-27T03:30:27;8.88;;;3.08;;
27039;SDS011;14589;51.578;7.306;2022-09-27T03:32:53;5.90;;;2.60;;
27039;SDS011;14589;51.578;7.306;2022-09-27T03:35:48;4.88;;;2.63;;
27039;SDS011;14589;51.578;7.306;2022-09-27T03:38:14;8.63;;;3.53;;
27039;SDS011;14589;51.578;7.306;2022-09-27T03:40:39;7.43;;;3.40;;
27039;SDS011;14589;51.578;7.306;2022-09-27T03:43:06;7.35;;;3.58;;
27039;SDS011;14589;51.578;7.306;2022-09-27T03:45:32;11.50;;;3.78;;
27039;SDS011;14589;51.578;7.306;2022-09-27T03:47:59;6.43;;;3.92;;
27039;SDS011;14589;51.578;7.306;2022-09-27T03:50:25;10.13;;;4.43;;
27039;SDS011;14589;51.578;7.306;2022-09-27T03:52:51;7.15;;;4.30;;
27039;SDS011;14589;51.578;7.306;2022-09-27T03:55:19;8.80;;;4.13;;
27039;SDS011;14589;51.578;7.306;2022-09-27T03:57:44;7.18;;;4.45;;
27039;SDS011;14589;51.578;7.306;2022-09-27T04:00:12;10.98;;;4.28;;
27039;SDS011;14589;51.578;7.306;2022-09-27T04:02:38;10.43;;;4.57;;
27039;SDS011;14589;51.578;7.306;2022-09-27T04:05:19;9.90;;;5.43;;
27039;SDS011;14589;51.578;7.306;2022-09-27T04:07:48;9.73;;;5.03;;
27039;SDS011;14589;51.578;7.306;2022-09-27T04:10:15;10.18;;;5.32;;
27039;SDS011;14589;51.578;7.306;2022-09-27T04:12:43;11.20;;;5.95;;
27039;SDS011;14589;51.578;7.306;2022-09-27T04:15:10;13.45;;;5.70;;
27039;SDS011;14589;51.578;7.306;2022-09-27T04:17:48;12.00;;;6.40;;
27039;SDS011;14589;51.578;7.306;2022-09-27T04:23:01;16.70;;;6.32;;
27039;SDS011;14589;51.578;7.306;2022-09-27T04:25:27;15.38;;;6.82;;
27039;SDS011;14589;51.578;7.306;2022-09-27T04:27:58;13.10;;;7.18;;
27039;SDS011;14589;51.578;7.306;2022-09-27T04:30:28;18.35;;;7.57;;
27039;SDS011;14589;51.578;7.306;2022-09-27T04:33:09;14.88;;;7.68;;
27039;SDS011;14589;51.578;7.306;2022-09-27T04:35:58;21.23;;;7.47;;
27039;SDS011;14589;51.578;7.306;2022-09-27T04:39:00;15.25;;;7.60;;
27039;SDS011;14589;51.578;7.306;2022-09-27T04:41:28;15.07;;;7.63;;
27039;SDS011;14589;51.578;7.306;2022-09-27T04:43:54;25.50;;;9.02;;
27039;SDS011;14589;51.578;7.306;2022-09-27T04:46:20;18.90;;;9.35;;
27039;SDS011;14589;51.578;7.306;2022-09-27T04:48:46;17.80;;;10.57;;
27039;SDS011;14589;51.578;7.306;2022-09-27T04:51:12;24.60;;;11.82;;
27039;SDS011;14589;51.578;7.306;2022-09-27T04:53:41;23.20;;;11.93;;
27039;SDS011;14589;51.578;7.306;2022-09-27T04:56:10;20.33;;;11.07;;
27039;SDS011;14589;51.578;7.306;2022-09-27T04:58:37;19.20;;;10.65;;
27039;SDS011;14589;51.578;7.306;2022-09-27T05:01:04;24.80;;;12.07;;
27039;SDS011;14589;51.578;7.306;2022-09-27T05:03:39;19.73;;;13.10;;
27039;SDS011;14589;51.578;7.306;2022-09-27T05:06:11;25.67;;;14.20;;
27039;SDS011;14589;51.578;7.306;2022-09-27T05:08:37;31.00;;;13.15;;
27039;SDS011;14589;51.578;7.306;2022-09-27T05:11:24;22.17;;;11.52;;
27039;SDS011;14589;51.578;7.306;2022-09-27T05:14:08;16.40;;;9.27;;
27039;SDS011;14589;51.578;7.306;2022-09-27T05:16:43;14.32;;;8.07;;
27039;SDS011;14589;51.578;7.306;2022-09-27T05:19:27;15.07;;;8.88;;
27039;SDS011;14589;51.578;7.306;2022-09-27T05:22:11;12.82;;;6.78;;
27039;SDS011;14589;51.578;7.306;2022-09-27T05:24:37;11.90;;;6.32;;
27039;SDS011;14589;51.578;7.306;2022-09-27T05:27:04;11.48;;;5.50;;
27039;SDS011;14589;51.578;7.306;2022-09-27T05:29:32;9.70;;;5.70;;
27039;SDS011;14589;51.578;7.306;2022-09-27T05:32:23;11.95;;;4.57;;
27039;SDS011;14589;51.578;7.306;2022-09-27T05:35:02;7.75;;;4.57;;
27039;SDS011;14589;51.578;7.306;2022-09-27T05:37:30;10.93;;;5.65;;
27039;SDS011;14589;51.578;7.306;2022-09-27T05:39:58;12.75;;;4.90;;
27039;SDS011;14589;51.578;7.306;2022-09-27T05:42:24;12.07;;;6.15;;
27039;SDS011;14589;51.578;7.306;2022-09-27T05:44:50;21.08;;;7.25;;
27039;SDS011;14589;51.578;7.306;2022-09-27T05:47:15;14.18;;;7.10;;
27039;SDS011;14589;51.578;7.306;2022-09-27T05:49:41;21.48;;;8.35;;
27039;SDS011;14589;51.578;7.306;2022-09-27T05:52:09;20.27;;;8.18;;
27039;SDS011;14589;51.578;7.306;2022-09-27T05:54:36;16.55;;;8.27;;
27039;SDS011;14589;51.578;7.306;2022-09-27T05:57:03;18.60;;;8.45;;
27039;SDS011;14589;51.578;7.306;2022-09-27T05:59:40;18.25;;;9.77;;
27039;SDS011;14589;51.578;7.306;2022-09-27T06:02:20;19.65;;;8.80;;
27039;SDS011;14589;51.578;7.306;2022-09-27T06:05:04;17.92;;;8.75;;
27039;SDS011;14589;51.578;7.306;2022-09-27T06:07:51;14.95;;;8.77;;
27039;SDS011;14589;51.578;7.306;2022-09-27T06:10:23;14.45;;;8.18;;
27039;SDS011;14589;51.578;7.306;2022-09-27T06:12:50;21.02;;;7.75;;
27039;SDS011;14589;51.578;7.306;2022-09-27T06:15:43;19.60;;;7.63;;
27039;SDS011;14589;51.578;7.306;2022-09-27T06:18:12;13.18;;;7.10;;
27039;SDS011;14589;51.578;7.306;2022-09-27T06:20:41;13.95;;;6.93;;
27039;SDS011;14589;51.578;7.306;2022-09-27T06:23:08;20.50;;;8.07;;
27039;SDS011;14589;51.578;7.306;2022-09-27T06:25:36;16.02;;;7.85;;
27039;SDS011;14589;51.578;7.306;2022-09-27T06:28:10;17.35;;;7.05;;
27039;SDS011;14589;51.578;7.306;2022-09-27T06:30:39;15.95;;;7.82;;
27039;SDS011;14589;51.578;7.306;2022-09-27T06:33:14;12.80;;;7.72;;
27039;SDS011;14589;51.578;7.306;2022-09-27T06:38:14;16.02;;;7.20;;
27039;SDS011;14589;51.578;7.306;2022-09-27T06:40:48;15.07;;;6.50;;
27039;SDS011;14589;51.578;7.306;2022-09-27T06:43:32;14.70;;;7.13;;
27039;SDS011;14589;51.578;7.306;2022-09-27T06:46:04;15.63;;;6.75;;
27039;SDS011;14589;51.578;7.306;2022-09-27T06:48:48;13.13;;;5.72;;
27039;SDS011;14589;51.578;7.306;2022-09-27T06:51:14;18.45;;;5.47;;
27039;SDS011;14589;51.578;7.306;2022-09-27T06:53:41;10.77;;;4.68;;
27039;SDS011;14589;51.578;7.306;2022-09-27T06:56:08;15.38;;;5.03;;
27039;SDS011;14589;51.578;7.306;2022-09-27T06:58:50;7.22;;;4.32;;
27039;SDS011;14589;51.578;7.306;2022-09-27T07:02:10;9.07;;;3.70;;
27039;SDS011;14589;51.578;7.306;2022-09-27T07:04:57;10.73;;;3.75;;
27039;SDS011;14589;51.578;7.306;2022-09-27T07:10:12;7.95;;;3.10;;
27039;SDS011;14589;51.578;7.306;2022-09-27T07:12:38;7.43;;;2.80;;
27039;SDS011;14589;51.578;7.306;2022-09-27T07:15:04;8.07;;;2.40;;
27039;SDS011;14589;51.578;7.306;2022-09-27T07:17:31;7.95;;;2.63;;
27039;SDS011;14589;51.578;7.306;2022-09-27T07:19:56;9.68;;;3.05;;
27039;SDS011;14589;51.578;7.306;2022-09-27T07:22:23;9.55;;;2.60;;
27039;SDS011;14589;51.578;7.306;2022-09-27T07:24:55;8.80;;;2.38;;
27039;SDS011;14589;51.578;7.306;2022-09-27T07:27:23;8.70;;;2.33;;
27039;SDS011;14589;51.578;7.306;2022-09-27T07:29:53;12.63;;;2.17;;
27039;SDS011;14589;51.578;7.306;2022-09-27T07:32:19;8.85;;;2.60;;
27039;SDS011;14589;51.578;7.306;2022-09-27T07:34:46;10.10;;;2.83;;
27039;SDS011;14589;51.578;7.306;2022-09-27T07:39:43;5.38;;;2.50;;
27039;SDS011;14589;51.578;7.306;2022-09-27T07:42:09;6.82;;;2.63;;
27039;SDS011;14589;51.578;7.306;2022-09-27T07:44:39;7.78;;;3.40;;
27039;SDS011;14589;51.578;7.306;2022-09-27T07:47:24;7.72;;;2.80;;
27039;SDS011;14589;51.578;7.306;2022-09-27T07:50:07;10.57;;;3.55;;
27039;SDS011;14589;51.578;7.306;2022-09-27T07:52:46;10.60;;;3.70;;
27039;SDS011;14589;51.578;7.306;2022-09-27T07:55:32;9.90;;;3.63;;
27039;SDS011;14589;51.578;7.306;2022-09-27T07:58:10;6.90;;;3.40;;
27039;SDS011;14589;51.578;7.306;2022-09-27T08:00:37;8.90;;;3.60;;
27039;SDS011;14589;51.578;7.306;2022-09-27T08:03:09;9.65;;;3.38;;
27039;SDS011;14589;51.578;7.306;2022-09-27T08:05:38;12.52;;;3.47;;
27039;SDS011;14589;51.578;7.306;2022-09-27T08:08:03;4.57;;;2.80;;
27039;SDS011;14589;51.578;7.306;2022-09-27T08:10:30;7.57;;;2.40;;
27039;SDS011;14589;51.578;7.306;2022-09-27T08:12:57;4.45;;;2.75;;
27039;SDS011;14589;51.578;7.306;2022-09-27T08:15:23;7.25;;;1.80;;
27039;SDS011;14589;51.578;7.306;2022-09-27T08:17:49;3.20;;;2.05;;
27039;SDS011;14589;51.578;7.306;2022-09-27T08:20:21;5.78;;;2.05;;
27039;SDS011;14589;51.578;7.306;2022-09-27T08:23:06;3.78;;;1.90;;
27039;SDS011;14589;51.578;7.306;2022-09-27T08:25:34;3.28;;;2.00;;
27039;SDS011;14589;51.578;7.306;2022-09-27T08:28:03;6.45;;;1.98;;
27039;SDS011;14589;51.578;7.306;2022-09-27T08:30:53;7.30;;;1.90;;
27039;SDS011;14589;51.578;7.306;2022-09-27T08:33:21;3.22;;;1.50;;
27039;SDS011;14589;51.578;7.306;2022-09-27T08:35:51;4.40;;;1.40;;
27039;SDS011;14589;51.578;7.306;2022-09-27T08:38:17;5.32;;;1.80;;
27039;SDS011;14589;51.578;7.306;2022-09-27T08:40:56;2.60;;;1.45;;
27039;SDS011;14589;51.578;7.306;2022-09-27T08:49:12;5.47;;;1.77;;
27039;SDS011;14589;51.578;7.306;2022-09-27T08:51:42;3.38;;;1.70;;
27039;SDS011;14589;51.578;7.306;2022-09-27T08:54:12;4.07;;;2.00;;
27039;SDS011;14589;51.578;7.306;2022-09-27T08:56:44;2.97;;;1.85;;
27039;SDS011;14589;51.578;7.306;2022-09-27T08:59:18;3.70;;;1.90;;
27039;SDS011;14589;51.578;7.306;2022-09-27T09:01:46;9.02;;;1.90;;
27039;SDS011;14589;51.578;7.306;2022-09-27T09:04:41;4.53;;;2.28;;
27039;SDS011;14589;51.578;7.306;2022-09-27T09:15:19;3.63;;;2.33;;
27039;SDS011;14589;51.578;7.306;2022-09-27T09:23:31;4.40;;;2.40;;
27039;SDS011;14589;51.578;7.306;2022-09-27T09:26:08;4.75;;;2.45;;
27039;SDS011;14589;51.578;7.306;2022-09-27T09:28:45;9.60;;;2.47;;
27039;SDS011;14589;51.578;7.306;2022-09-27T09:33:48;4.07;;;1.50;;
27039;SDS011;14589;51.578;7.306;2022-09-27T09:38:56;5.25;;;1.60;;
27039;SDS011;14589;51.578;7.306;2022-09-27T09:44:01;2.55;;;1.30;;
27039;SDS011;14589;51.578;7.306;2022-09-27T09:46:36;4.53;;;1.70;;
27039;SDS011;14589;51.578;7.306;2022-09-27T09:49:11;5.18;;;1.13;;
27039;SDS011;14589;51.578;7.306;2022-09-27T09:51:45;2.47;;;1.35;;
27039;SDS011;14589;51.578;7.306;2022-09-27T09:54:21;4.32;;;1.40;;
27039;SDS011;14589;51.578;7.306;2022-09-27T09:57:09;2.53;;;1.23;;
27039;SDS011;14589;51.578;7.306;2022-09-27T09:59:45;3.03;;;1.40;;
27039;SDS011;14589;51.578;7.306;2022-09-27T10:02:17;5.00;;;1.10;;
27039;SDS011;14589;51.578;7.306;2022-09-27T10:04:51;3.10;;;1.48;;
27039;SDS011;14589;51.578;7.306;2022-09-27T10:07:19;2.97;;;1.67;;
27039;SDS011;14589;51.578;7.306;2022-09-27T10:09:47;2.25;;;1.90;;
27039;SDS011;14589;51.578;7.306;2022-09-27T10:12:48;4.05;;;2.33;;
27039;SDS011;14589;51.578;7.306;2022-09-27T10:15:16;4.28;;;2.10;;
27039;SDS011;14589;51.578;7.306;2022-09-27T10:17:50;5.28;;;2.00;;
27039;SDS011;14589;51.578;7.306;2022-09-27T10:20:27;3.45;;;1.65;;
27039;SDS011;14589;51.578;7.306;2022-09-27T10:23:03;2.70;;;1.83;;
27039;SDS011;14589;51.578;7.306;2022-09-27T10:25:51;3.40;;;1.80;;
27039;SDS011;14589;51.578;7.306;2022-09-27T10:28:48;5.22;;;2.67;;
27039;SDS011;14589;51.578;7.306;2022-09-27T10:31:20;4.80;;;2.42;;
27039;SDS011;14589;51.578;7.306;2022-09-27T10:33:57;4.40;;;2.47;;
27039;SDS011;14589;51.578;7.306;2022-09-27T10:36:31;5.60;;;2.28;;
27039;SDS011;14589;51.578;7.306;2022-09-27T10:38:58;2.47;;;1.90;;
27039;SDS011;14589;51.578;7.306;2022-09-27T10:41:37;3.78;;;1.70;;
27039;SDS011;14589;51.578;7.306;2022-09-27T10:46:57;4.85;;;1.60;;
27039;SDS011;14589;51.578;7.306;2022-09-27T10:49:38;3.25;;;1.70;;
27039;SDS011;14589;51.578;7.306;2022-09-27T10:52:14;2.58;;;1.77;;
27039;SDS011;14589;51.578;7.306;2022-09-27T10:54:53;8.75;;;2.05;;
27039;SDS011;14589;51.578;7.306;2022-09-27T10:57:22;6.35;;;1.83;;
27039;SDS011;14589;51.578;7.306;2022-09-27T11:02:53;5.45;;;2.05;;
27039;SDS011;14589;51.578;7.306;2022-09-27T11:07:55;5.82;;;2.63;;
27039;SDS011;14589;51.578;7.306;2022-09-27T11:10:59;2.90;;;1.70;;
27039;SDS011;14589;51.578;7.306;2022-09-27T11:16:39;9.45;;;2.60;;
27039;SDS011;14589;51.578;7.306;2022-09-27T11:24:36;2.65;;;2.17;;
27039;SDS011;14589;51.578;7.306;2022-09-27T11:33:08;7.90;;;2.30;;
27039;SDS011;14589;51.578;7.306;2022-09-27T11:38:55;5.60;;;2.85;;
27039;SDS011;14589;51.578;7.306;2022-09-27T11:47:00;4.60;;;3.60;;
27039;SDS011;14589;51.578;7.306;2022-09-27T11:53:20;9.95;;;4.60;;
27039;SDS011;14589;51.578;7.306;2022-09-27T11:57:55;11.20;;;4.30;;
27039;SDS011;14589;51.578;7.306;2022-09-27T12:00:51;4.32;;;3.33;;
27039;SDS011;14589;51.578;7.306;2022-09-27T12:06:10;7.07;;;3.20;;
27039;SDS011;14589;51.578;7.306;2022-09-27T12:08:58;3.85;;;2.58;;
27039;SDS011;14589;51.578;7.306;2022-09-27T12:11:42;3.88;;;3.15;;
27039;SDS011;14589;51.578;7.306;2022-09-27T12:14:20;4.32;;;2.97;;
27039;SDS011;14589;51.578;7.306;2022-09-27T12:16:51;7.05;;;2.30;;
27039;SDS011;14589;51.578;7.306;2022-09-27T12:19:26;7.05;;;1.90;;
27039;SDS011;14589;51.578;7.306;2022-09-27T12:22:04;2.55;;;1.70;;
27039;SDS011;14589;51.578;7.306;2022-09-27T12:24:35;2.38;;;1.55;;
27039;SDS011;14589;51.578;7.306;2022-09-27T12:27:15;3.60;;;1.65;;
27039;SDS011;14589;51.578;7.306;2022-09-27T12:29:45;2.53;;;1.67;;
27039;SDS011;14589;51.578;7.306;2022-09-27T12:34:53;4.90;;;1.90;;
27039;SDS011;14589;51.578;7.306;2022-09-27T12:37:23;1.73;;;1.42;;
27039;SDS011;14589;51.578;7.306;2022-09-27T12:45:00;4.47;;;1.90;;
27039;SDS011;14589;51.578;7.306;2022-09-27T12:53:19;8.30;;;5.50;;
27039;SDS011;14589;51.578;7.306;2022-09-27T12:55:54;4.82;;;3.42;;
27039;SDS011;14589;51.578;7.306;2022-09-27T12:59:31;8.77;;;2.25;;
27039;SDS011;14589;51.578;7.306;2022-09-27T13:04:53;3.42;;;2.75;;
27039;SDS011;14589;51.578;7.306;2022-09-27T13:13:34;3.30;;;1.20;;
27039;SDS011;14589;51.578;7.306;2022-09-27T13:16:06;1.60;;;1.50;;
27039;SDS011;14589;51.578;7.306;2022-09-27T13:21:11;3.95;;;1.52;;
27039;SDS011;14589;51.578;7.306;2022-09-27T13:33:19;22.83;;;12.18;;
27039;SDS011;14589;51.578;7.306;2022-09-27T13:41:54;3.60;;;2.58;;
27039;SDS011;14589;51.578;7.306;2022-09-27T13:50:16;3.58;;;2.72;;
27039;SDS011;14589;51.578;7.306;2022-09-27T13:52:56;2.47;;;1.75;;
27039;SDS011;14589;51.578;7.306;2022-09-27T13:55:52;2.88;;;2.00;;
27039;SDS011;14589;51.578;7.306;2022-09-27T13:58:36;2.25;;;1.95;;
27039;SDS011;14589;51.578;7.306;2022-09-27T14:03:58;2.75;;;1.85;;
27039;SDS011;14589;51.578;7.306;2022-09-27T14:06:28;2.78;;;2.08;;
27039;SDS011;14589;51.578;7.306;2022-09-27T14:08:56;4.03;;;1.80;;
27039;SDS011;14589;51.578;7.306;2022-09-27T14:11:27;3.67;;;2.00;;
27039;SDS011;14589;51.578;7.306;2022-09-27T14:14:01;2.28;;;1.65;;
27039;SDS011;14589;51.578;7.306;2022-09-27T14:16:32;1.80;;;1.13;;
27039;SDS011;14589;51.578;7.306;2022-09-27T14:19:00;1.65;;;1.20;;
27039;SDS011;14589;51.578;7.306;2022-09-27T14:21:38;4.85;;;1.15;;
27039;SDS011;14589;51.578;7.306;2022-09-27T14:27:06;3.22;;;1.50;;
27039;SDS011;14589;51.578;7.306;2022-09-27T14:29:44;1.33;;;1.20;;
27039;SDS011;14589;51.578;7.306;2022-09-27T14:32:16;3.90;;;1.38;;
27039;SDS011;14589;51.578;7.306;2022-09-27T14:35:04;5.80;;;1.33;;
27039;SDS011;14589;51.578;7.306;2022-09-27T14:37:31;1.40;;;1.30;;
27039;SDS011;14589;51.578;7.306;2022-09-27T14:42:33;4.25;;;1.35;;
27039;SDS011;14589;51.578;7.306;2022-09-27T14:45:06;1.65;;;1.42;;
27039;SDS011;14589;51.578;7.306;2022-09-27T14:47:46;3.58;;;1.48;;
27039;SDS011;14589;51.578;7.306;2022-09-27T14:50:24;1.77;;;1.30;;
27039;SDS011;14589;51.578;7.306;2022-09-27T14:52:54;1.40;;;1.30;;
27039;SDS011;14589;51.578;7.306;2022-09-27T14:55:25;2.33;;;1.23;;
27039;SDS011;14589;51.578;7.306;2022-09-27T14:57:56;3.92;;;1.33;;
27039;SDS011;14589;51.578;7.306;2022-09-27T15:00:30;1.30;;;1.10;;
27039;SDS011;14589;51.578;7.306;2022-09-27T15:03:01;4.95;;;1.05;;
27039;SDS011;14589;51.578;7.306;2022-09-27T15:05:30;2.08;;;0.93;;
27039;SDS011;14589;51.578;7.306;2022-09-27T15:08:00;5.18;;;0.90;;
27039;SDS011;14589;51.578;7.306;2022-09-27T15:10:28;3.35;;;1.15;;
27039;SDS011;14589;51.578;7.306;2022-09-27T15:12:55;1.63;;;0.82;;
27039;SDS011;14589;51.578;7.306;2022-09-27T15:15:26;1.02;;;0.70;;
27039;SDS011;14589;51.578;7.306;2022-09-27T15:17:55;1.30;;;0.50;;
27039;SDS011;14589;51.578;7.306;2022-09-27T15:20:28;1.60;;;0.85;;
27039;SDS011;14589;51.578;7.306;2022-09-27T15:23:03;1.38;;;0.45;;
27039;SDS011;14589;51.578;7.306;2022-09-27T15:25:36;0.50;;;0.50;;
27039;SDS011;14589;51.578;7.306;2022-09-27T15:33:04;2.20;;;0.80;;
27039;SDS011;14589;51.578;7.306;2022-09-27T15:35:31;4.25;;;0.70;;
27039;SDS011;14589;51.578;7.306;2022-09-27T15:41:01;2.50;;;0.80;;
27039;SDS011;14589;51.578;7.306;2022-09-27T15:51:43;7.53;;;1.00;;
27039;SDS011;14589;51.578;7.306;2022-09-27T15:54:09;5.40;;;1.30;;
27039;SDS011;14589;51.578;7.306;2022-09-27T15:56:35;1.98;;;1.00;;
27039;SDS011;14589;51.578;7.306;2022-09-27T15:59:01;1.92;;;0.93;;
27039;SDS011;14589;51.578;7.306;2022-09-27T16:01:27;2.80;;;0.90;;
27039;SDS011;14589;51.578;7.306;2022-09-27T16:03:53;2.50;;;0.75;;
27039;SDS011;14589;51.578;7.306;2022-09-27T16:06:18;1.67;;;0.65;;
27039;SDS011;14589;51.578;7.306;2022-09-27T16:08:52;2.83;;;0.75;;
27039;SDS011;14589;51.578;7.306;2022-09-27T16:11:18;1.58;;;0.82;;
27039;SDS011;14589;51.578;7.306;2022-09-27T16:13:45;4.65;;;1.17;;
27039;SDS011;14589;51.578;7.306;2022-09-27T16:16:18;3.65;;;1.02;;
27039;SDS011;14589;51.578;7.306;2022-09-27T16:18:44;1.25;;;0.70;;
27039;SDS011;14589;51.578;7.306;2022-09-27T16:21:10;4.38;;;0.98;;
27039;SDS011;14589;51.578;7.306;2022-09-27T16:23:36;2.70;;;1.15;;
27039;SDS011;14589;51.578;7.306;2022-09-27T16:26:01;3.78;;;1.08;;
27039;SDS011;14589;51.578;7.306;2022-09-27T16:28:27;2.17;;;0.90;;
27039;SDS011;14589;51.578;7.306;2022-09-27T16:30:52;5.70;;;1.27;;
27039;SDS011;14589;51.578;7.306;2022-09-27T16:33:17;7.28;;;2.53;;
27039;SDS011;14589;51.578;7.306;2022-09-27T16:35:43;3.47;;;1.00;;
27039;SDS011;14589;51.578;7.306;2022-09-27T16:38:09;4.00;;;1.77;;
27039;SDS011;14589;51.578;7.306;2022-09-27T16:40:37;7.43;;;1.38;;
27039;SDS011;14589;51.578;7.306;2022-09-27T16:43:03;1.85;;;1.02;;
27039;SDS011;14589;51.578;7.306;2022-09-27T16:45:31;2.85;;;1.20;;
27039;SDS011;14589;51.578;7.306;2022-09-27T16:47:58;6.10;;;1.88;;
27039;SDS011;14589;51.578;7.306;2022-09-27T16:50:25;4.15;;;1.80;;
27039;SDS011;14589;51.578;7.306;2022-09-27T16:53:10;7.07;;;2.58;;
27039;SDS011;14589;51.578;7.306;2022-09-27T16:55:38;8.02;;;2.80;;
27039;SDS011;14589;51.578;7.306;2022-09-27T16:58:04;3.30;;;1.67;;
27039;SDS011;14589;51.578;7.306;2022-09-27T17:00:31;3.80;;;1.50;;
27039;SDS011;14589;51.578;7.306;2022-09-27T17:02:58;6.22;;;1.55;;
27039;SDS011;14589;51.578;7.306;2022-09-27T17:05:24;2.17;;;1.35;;
27039;SDS011;14589;51.578;7.306;2022-09-27T17:07:50;3.35;;;1.23;;
27039;SDS011;14589;51.578;7.306;2022-09-27T17:10:16;2.55;;;1.30;;
27039;SDS011;14589;51.578;7.306;2022-09-27T17:12:43;3.55;;;1.23;;
27039;SDS011;14589;51.578;7.306;2022-09-27T17:15:10;5.18;;;1.60;;
27039;SDS011;14589;51.578;7.306;2022-09-27T17:17:35;5.05;;;1.30;;
27039;SDS011;14589;51.578;7.306;2022-09-27T17:20:01;3.97;;;1.50;;
27039;SDS011;14589;51.578;7.306;2022-09-27T17:22:27;6.28;;;1.60;;
27039;SDS011;14589;51.578;7.306;2022-09-27T17:24:52;4.15;;;1.20;;
27039;SDS011;14589;51.578;7.306;2022-09-27T17:27:17;2.85;;;1.73;;
27039;SDS011;14589;51.578;7.306;2022-09-27T17:29:43;4.75;;;1.27;;
27039;SDS011;14589;51.578;7.306;2022-09-27T17:32:08;7.22;;;1.70;;
27039;SDS011;14589;51.578;7.306;2022-09-27T17:34:34;5.05;;;1.60;;
27039;SDS011;14589;51.578;7.306;2022-09-27T17:37:01;3.40;;;1.35;;
27039;SDS011;14589;51.578;7.306;2022-09-27T17:39:27;9.52;;;1.80;;
27039;SDS011;14589;51.578;7.306;2022-09-27T17:41:52;4.50;;;1.48;;
27039;SDS011;14589;51.578;7.306;2022-09-27T17:44:18;5.68;;;1.67;;
27039;SDS011;14589;51.578;7.306;2022-09-27T17:46:45;5.47;;;1.60;;
27039;SDS011;14589;51.578;7.306;2022-09-27T17:49:11;3.35;;;1.70;;
27039;SDS011;14589;51.578;7.306;2022-09-27T17:51:55;3.83;;;1.83;;
27039;SDS011;14589;51.578;7.306;2022-09-27T17:54:21;2.13;;;1.55;;
27039;SDS011;14589;51.578;7.306;2022-09-27T17:56:48;3.63;;;1.75;;
27039;SDS011;14589;51.578;7.306;2022-09-27T17:59:14;6.85;;;1.48;;
27039;SDS011;14589;51.578;7.306;2022-09-27T18:01:42;3.80;;;1.48;;
27039;SDS011;14589;51.578;7.306;2022-09-27T18:04:13;4.78;;;1.50;;
27039;SDS011;14589;51.578;7.306;2022-09-27T18:06:42;3.22;;;1.60;;
27039;SDS011;14589;51.578;7.306;2022-09-27T18:09:09;5.43;;;1.80;;